sensor_id;sensor_type;location;lat;lon;timestamp;P1;durP1;ratioP1;P2;durP2;ratioP2
7493;SDS011;3788;49.902;8.590;2024-01-10T00:02:19;20.03;;;11.50;;
7493;SDS011;3788;49.902;8.590;2024-01-10T00:04:48;20.13;;;11.73;;
7493;SDS011;3788;49.902;8.590;2024-01-10T00:07:14;20.10;;;11.50;;
7493;SDS011;3788;49.902;8.590;2024-01-10T00:09:41;19.13;;;11.03;;
7493;SDS011;3788;49.902;8.590;2024-01-10T00:12:08;20.03;;;11.40;;
7493;SDS011;3788;49.902;8.590;2024-01-10T00:14:34;20.07;;;11.60;;
7493;SDS011;3788;49.902;8.590;2024-01-10T00:17:01;21.83;;;11.60;;
7493;SDS011;3788;49.902;8.590;2024-01-10T00:19:28;21.07;;;11.53;;
7493;SDS011;3788;49.902;8.590;2024-01-10T00:21:56;20.73;;;11.33;;
7493;SDS011;3788;49.902;8.590;2024-01-10T00:24:23;23.83;;;12.30;;
7493;SDS011;3788;49.902;8.590;2024-01-10T00:26:49;25.00;;;12.67;;
7493;SDS011;3788;49.902;8.590;2024-01-10T00:29:16;22.47;;;12.70;;
7493;SDS011;3788;49.902;8.590;2024-01-10T00:31:43;25.27;;;12.90;;
7493;SDS011;3788;49.902;8.590;2024-01-10T00:34:09;23.23;;;11.53;;
7493;SDS011;3788;49.902;8.590;2024-01-10T00:36:36;19.70;;;11.87;;
7493;SDS011;3788;49.902;8.590;2024-01-10T00:39:04;20.40;;;11.83;;
7493;SDS011;3788;49.902;8.590;2024-01-10T00:41:31;20.83;;;11.33;;
7493;SDS011;3788;49.902;8.590;2024-01-10T00:43:58;22.40;;;12.33;;
7493;SDS011;3788;49.902;8.590;2024-01-10T00:46:24;21.40;;;13.07;;
7493;SDS011;3788;49.902;8.590;2024-01-10T00:48:51;22.17;;;11.70;;
7493;SDS011;3788;49.902;8.590;2024-01-10T00:51:18;23.23;;;11.60;;
7493;SDS011;3788;49.902;8.590;2024-01-10T00:53:44;20.03;;;12.33;;
7493;SDS011;3788;49.902;8.590;2024-01-10T00:56:12;22.00;;;12.47;;
7493;SDS011;3788;49.902;8.590;2024-01-10T00:58:39;23.57;;;12.03;;
7493;SDS011;3788;49.902;8.590;2024-01-10T01:01:06;21.47;;;11.47;;
7493;SDS011;3788;49.902;8.590;2024-01-10T01:03:32;20.00;;;11.43;;
7493;SDS011;3788;49.902;8.590;2024-01-10T01:05:59;21.33;;;11.87;;
7493;SDS011;3788;49.902;8.590;2024-01-10T01:08:25;25.47;;;11.97;;
7493;SDS011;3788;49.902;8.590;2024-01-10T01:10:52;20.33;;;11.63;;
7493;SDS011;3788;49.902;8.590;2024-01-10T01:13:20;22.07;;;11.33;;
7493;SDS011;3788;49.902;8.590;2024-01-10T01:15:47;24.73;;;13.57;;
7493;SDS011;3788;49.902;8.590;2024-01-10T01:18:13;24.03;;;11.90;;
7493;SDS011;3788;49.902;8.590;2024-01-10T01:20:40;22.10;;;12.30;;
7493;SDS011;3788;49.902;8.590;2024-01-10T01:23:07;22.37;;;11.80;;
7493;SDS011;3788;49.902;8.590;2024-01-10T01:25:33;23.70;;;12.77;;
7493;SDS011;3788;49.902;8.590;2024-01-10T01:28:00;22.40;;;11.97;;
7493;SDS011;3788;49.902;8.590;2024-01-10T01:30:28;26.43;;;12.40;;
7493;SDS011;3788;49.902;8.590;2024-01-10T01:32:55;24.57;;;13.50;;
7493;SDS011;3788;49.902;8.590;2024-01-10T01:35:21;26.70;;;12.93;;
7493;SDS011;3788;49.902;8.590;2024-01-10T01:37:48;25.20;;;13.23;;
7493;SDS011;3788;49.902;8.590;2024-01-10T01:40:17;25.93;;;13.27;;
7493;SDS011;3788;49.902;8.590;2024-01-10T01:42:44;28.60;;;13.33;;
7493;SDS011;3788;49.902;8.590;2024-01-10T01:45:11;27.17;;;13.60;;
7493;SDS011;3788;49.902;8.590;2024-01-10T01:47:39;22.37;;;13.30;;
7493;SDS011;3788;49.902;8.590;2024-01-10T01:50:06;25.47;;;13.17;;
7493;SDS011;3788;49.902;8.590;2024-01-10T01:52:33;24.37;;;12.50;;
7493;SDS011;3788;49.902;8.590;2024-01-10T01:55:00;22.17;;;12.53;;
7493;SDS011;3788;49.902;8.590;2024-01-10T01:57:27;24.87;;;12.80;;
7493;SDS011;3788;49.902;8.590;2024-01-10T01:59:54;23.17;;;12.43;;
7493;SDS011;3788;49.902;8.590;2024-01-10T02:02:21;23.53;;;13.43;;
7493;SDS011;3788;49.902;8.590;2024-01-10T02:04:50;22.20;;;11.87;;
7493;SDS011;3788;49.902;8.590;2024-01-10T02:07:16;23.10;;;12.47;;
7493;SDS011;3788;49.902;8.590;2024-01-10T02:09:43;27.50;;;13.97;;
7493;SDS011;3788;49.902;8.590;2024-01-10T02:12:10;24.47;;;12.90;;
7493;SDS011;3788;49.902;8.590;2024-01-10T02:14:37;23.90;;;13.40;;
7493;SDS011;3788;49.902;8.590;2024-01-10T02:17:03;23.20;;;13.10;;
7493;SDS011;3788;49.902;8.590;2024-01-10T02:19:30;29.40;;;13.93;;
7493;SDS011;3788;49.902;8.590;2024-01-10T02:21:58;25.63;;;13.80;;
7493;SDS011;3788;49.902;8.590;2024-01-10T02:24:25;26.90;;;13.40;;
7493;SDS011;3788;49.902;8.590;2024-01-10T02:26:53;25.53;;;14.40;;
7493;SDS011;3788;49.902;8.590;2024-01-10T02:29:20;19.10;;;12.07;;
7493;SDS011;3788;49.902;8.590;2024-01-10T02:31:48;27.87;;;13.87;;
7493;SDS011;3788;49.902;8.590;2024-01-10T02:34:15;25.30;;;13.87;;
7493;SDS011;3788;49.902;8.590;2024-01-10T02:36:42;27.50;;;14.13;;
7493;SDS011;3788;49.902;8.590;2024-01-10T02:39:08;26.30;;;13.87;;
7493;SDS011;3788;49.902;8.590;2024-01-10T02:41:35;23.03;;;13.37;;
7493;SDS011;3788;49.902;8.590;2024-01-10T02:44:03;23.40;;;13.50;;
7493;SDS011;3788;49.902;8.590;2024-01-10T02:46:30;25.43;;;13.70;;
7493;SDS011;3788;49.902;8.590;2024-01-10T02:48:56;27.23;;;13.70;;
7493;SDS011;3788;49.902;8.590;2024-01-10T02:51:25;23.60;;;12.90;;
7493;SDS011;3788;49.902;8.590;2024-01-10T02:53:52;20.07;;;11.53;;
7493;SDS011;3788;49.902;8.590;2024-01-10T02:56:19;25.43;;;13.40;;
7493;SDS011;3788;49.902;8.590;2024-01-10T02:58:46;24.40;;;13.23;;
7493;SDS011;3788;49.902;8.590;2024-01-10T03:01:14;28.30;;;12.87;;
7493;SDS011;3788;49.902;8.590;2024-01-10T03:03:41;24.77;;;13.40;;
7493;SDS011;3788;49.902;8.590;2024-01-10T03:06:08;25.53;;;12.57;;
7493;SDS011;3788;49.902;8.590;2024-01-10T03:08:34;24.57;;;13.43;;
7493;SDS011;3788;49.902;8.590;2024-01-10T03:11:01;24.47;;;13.67;;
7493;SDS011;3788;49.902;8.590;2024-01-10T03:13:28;24.30;;;13.57;;
7493;SDS011;3788;49.902;8.590;2024-01-10T03:15:54;30.77;;;14.27;;
7493;SDS011;3788;49.902;8.590;2024-01-10T03:18:23;24.47;;;13.93;;
7493;SDS011;3788;49.902;8.590;2024-01-10T03:20:50;28.27;;;14.67;;
7493;SDS011;3788;49.902;8.590;2024-01-10T03:23:17;27.33;;;14.13;;
7493;SDS011;3788;49.902;8.590;2024-01-10T03:25:43;23.90;;;13.67;;
7493;SDS011;3788;49.902;8.590;2024-01-10T03:28:10;22.67;;;13.20;;
7493;SDS011;3788;49.902;8.590;2024-01-10T03:30:41;25.40;;;13.23;;
7493;SDS011;3788;49.902;8.590;2024-01-10T03:33:07;21.70;;;13.20;;
7493;SDS011;3788;49.902;8.590;2024-01-10T03:35:35;26.20;;;14.17;;
7493;SDS011;3788;49.902;8.590;2024-01-10T03:38:02;21.33;;;11.73;;
7493;SDS011;3788;49.902;8.590;2024-01-10T03:40:29;24.77;;;13.20;;
7493;SDS011;3788;49.902;8.590;2024-01-10T03:42:55;21.73;;;12.70;;
7493;SDS011;3788;49.902;8.590;2024-01-10T03:45:22;21.93;;;12.73;;
7493;SDS011;3788;49.902;8.590;2024-01-10T03:47:49;23.30;;;12.47;;
7493;SDS011;3788;49.902;8.590;2024-01-10T03:50:16;23.83;;;12.70;;
7493;SDS011;3788;49.902;8.590;2024-01-10T03:52:45;24.70;;;13.23;;
7493;SDS011;3788;49.902;8.590;2024-01-10T03:55:12;22.13;;;12.73;;
7493;SDS011;3788;49.902;8.590;2024-01-10T03:57:40;27.87;;;14.10;;
7493;SDS011;3788;49.902;8.590;2024-01-10T04:00:07;26.53;;;14.47;;
7493;SDS011;3788;49.902;8.590;2024-01-10T04:02:36;24.13;;;13.70;;
7493;SDS011;3788;49.902;8.590;2024-01-10T04:05:03;26.17;;;13.07;;
7493;SDS011;3788;49.902;8.590;2024-01-10T04:07:32;26.47;;;14.47;;
7493;SDS011;3788;49.902;8.590;2024-01-10T04:10:00;25.67;;;12.57;;
7493;SDS011;3788;49.902;8.590;2024-01-10T04:12:27;24.03;;;11.30;;
7493;SDS011;3788;49.902;8.590;2024-01-10T04:14:54;23.33;;;12.53;;
7493;SDS011;3788;49.902;8.590;2024-01-10T04:17:20;24.40;;;13.33;;
7493;SDS011;3788;49.902;8.590;2024-01-10T04:19:47;24.80;;;13.17;;
7493;SDS011;3788;49.902;8.590;2024-01-10T04:22:14;22.83;;;12.90;;
7493;SDS011;3788;49.902;8.590;2024-01-10T04:24:40;26.30;;;13.53;;
7493;SDS011;3788;49.902;8.590;2024-01-10T04:27:08;19.87;;;12.93;;
7493;SDS011;3788;49.902;8.590;2024-01-10T04:29:35;23.33;;;12.83;;
7493;SDS011;3788;49.902;8.590;2024-01-10T04:32:01;25.73;;;13.40;;
7493;SDS011;3788;49.902;8.590;2024-01-10T04:34:28;22.93;;;12.17;;
7493;SDS011;3788;49.902;8.590;2024-01-10T04:36:55;24.37;;;13.33;;
7493;SDS011;3788;49.902;8.590;2024-01-10T04:39:22;23.07;;;11.93;;
7493;SDS011;3788;49.902;8.590;2024-01-10T04:41:48;24.40;;;12.00;;
7493;SDS011;3788;49.902;8.590;2024-01-10T04:44:16;24.47;;;13.00;;
7493;SDS011;3788;49.902;8.590;2024-01-10T04:46:43;24.83;;;12.47;;
7493;SDS011;3788;49.902;8.590;2024-01-10T04:49:10;23.47;;;13.67;;
7493;SDS011;3788;49.902;8.590;2024-01-10T04:51:37;21.93;;;12.37;;
7493;SDS011;3788;49.902;8.590;2024-01-10T04:54:03;19.50;;;11.70;;
7493;SDS011;3788;49.902;8.590;2024-01-10T04:56:30;21.87;;;11.90;;
7493;SDS011;3788;49.902;8.590;2024-01-10T04:58:57;20.27;;;11.07;;
7493;SDS011;3788;49.902;8.590;2024-01-10T05:01:25;20.53;;;10.83;;
7493;SDS011;3788;49.902;8.590;2024-01-10T05:03:51;18.67;;;11.13;;
7493;SDS011;3788;49.902;8.590;2024-01-10T05:06:18;18.30;;;10.47;;
7493;SDS011;3788;49.902;8.590;2024-01-10T05:08:45;21.87;;;11.60;;
7493;SDS011;3788;49.902;8.590;2024-01-10T05:11:12;19.33;;;10.70;;
7493;SDS011;3788;49.902;8.590;2024-01-10T05:13:40;17.30;;;10.17;;
7493;SDS011;3788;49.902;8.590;2024-01-10T05:16:07;19.27;;;10.37;;
7493;SDS011;3788;49.902;8.590;2024-01-10T05:18:35;18.53;;;10.00;;
7493;SDS011;3788;49.902;8.590;2024-01-10T05:21:02;17.63;;;10.43;;
7493;SDS011;3788;49.902;8.590;2024-01-10T05:23:29;24.37;;;12.07;;
7493;SDS011;3788;49.902;8.590;2024-01-10T05:25:56;19.43;;;11.07;;
7493;SDS011;3788;49.902;8.590;2024-01-10T05:28:23;20.27;;;11.67;;
7493;SDS011;3788;49.902;8.590;2024-01-10T05:30:50;19.80;;;11.17;;
7493;SDS011;3788;49.902;8.590;2024-01-10T05:33:17;21.27;;;12.10;;
7493;SDS011;3788;49.902;8.590;2024-01-10T05:35:45;16.60;;;10.77;;
7493;SDS011;3788;49.902;8.590;2024-01-10T05:38:12;20.27;;;11.00;;
7493;SDS011;3788;49.902;8.590;2024-01-10T05:40:39;19.43;;;11.03;;
7493;SDS011;3788;49.902;8.590;2024-01-10T05:43:05;19.70;;;12.10;;
7493;SDS011;3788;49.902;8.590;2024-01-10T05:45:33;18.20;;;10.70;;
7493;SDS011;3788;49.902;8.590;2024-01-10T05:47:59;17.63;;;11.10;;
7493;SDS011;3788;49.902;8.590;2024-01-10T05:50:26;16.90;;;9.27;;
7493;SDS011;3788;49.902;8.590;2024-01-10T05:52:54;20.90;;;11.87;;
7493;SDS011;3788;49.902;8.590;2024-01-10T05:55:21;20.93;;;11.27;;
7493;SDS011;3788;49.902;8.590;2024-01-10T05:57:48;19.20;;;11.10;;
7493;SDS011;3788;49.902;8.590;2024-01-10T06:00:15;23.40;;;11.87;;
7493;SDS011;3788;49.902;8.590;2024-01-10T06:02:42;24.80;;;12.43;;
7493;SDS011;3788;49.902;8.590;2024-01-10T06:05:09;20.80;;;11.33;;
7493;SDS011;3788;49.902;8.590;2024-01-10T06:07:37;22.97;;;12.50;;
7493;SDS011;3788;49.902;8.590;2024-01-10T06:10:07;23.53;;;11.50;;
7493;SDS011;3788;49.902;8.590;2024-01-10T06:12:34;25.53;;;12.87;;
7493;SDS011;3788;49.902;8.590;2024-01-10T06:15:01;21.70;;;12.77;;
7493;SDS011;3788;49.902;8.590;2024-01-10T06:17:28;23.60;;;13.33;;
7493;SDS011;3788;49.902;8.590;2024-01-10T06:19:56;25.57;;;13.77;;
7493;SDS011;3788;49.902;8.590;2024-01-10T06:22:24;24.03;;;13.50;;
7493;SDS011;3788;49.902;8.590;2024-01-10T06:24:51;26.90;;;14.90;;
7493;SDS011;3788;49.902;8.590;2024-01-10T06:27:19;24.10;;;13.93;;
7493;SDS011;3788;49.902;8.590;2024-01-10T06:29:46;24.67;;;13.47;;
7493;SDS011;3788;49.902;8.590;2024-01-10T06:32:12;24.77;;;13.63;;
7493;SDS011;3788;49.902;8.590;2024-01-10T06:34:40;23.50;;;12.73;;
7493;SDS011;3788;49.902;8.590;2024-01-10T06:37:07;25.83;;;15.98;;
7493;SDS011;3788;49.902;8.590;2024-01-10T06:39:34;23.53;;;13.10;;
7493;SDS011;3788;49.902;8.590;2024-01-10T06:42:01;23.77;;;13.23;;
7493;SDS011;3788;49.902;8.590;2024-01-10T06:44:32;25.93;;;14.67;;
7493;SDS011;3788;49.902;8.590;2024-01-10T06:46:59;23.97;;;13.27;;
7493;SDS011;3788;49.902;8.590;2024-01-10T06:49:25;25.07;;;12.90;;
7493;SDS011;3788;49.902;8.590;2024-01-10T06:51:52;23.40;;;12.30;;
7493;SDS011;3788;49.902;8.590;2024-01-10T06:54:19;21.63;;;11.60;;
7493;SDS011;3788;49.902;8.590;2024-01-10T06:56:45;25.67;;;13.30;;
7493;SDS011;3788;49.902;8.590;2024-01-10T06:59:12;20.83;;;12.40;;
7493;SDS011;3788;49.902;8.590;2024-01-10T07:01:40;24.20;;;13.13;;
7493;SDS011;3788;49.902;8.590;2024-01-10T07:04:06;20.67;;;13.13;;
7493;SDS011;3788;49.902;8.590;2024-01-10T07:06:33;21.47;;;12.43;;
7493;SDS011;3788;49.902;8.590;2024-01-10T07:09:00;21.57;;;12.70;;
7493;SDS011;3788;49.902;8.590;2024-01-10T07:11:26;20.53;;;11.90;;
7493;SDS011;3788;49.902;8.590;2024-01-10T07:13:54;19.90;;;12.87;;
7493;SDS011;3788;49.902;8.590;2024-01-10T07:16:21;23.53;;;13.40;;
7493;SDS011;3788;49.902;8.590;2024-01-10T07:18:49;54.80;;;29.90;;
7493;SDS011;3788;49.902;8.590;2024-01-10T07:21:16;53.80;;;31.97;;
7493;SDS011;3788;49.902;8.590;2024-01-10T07:23:43;75.03;;;40.57;;
7493;SDS011;3788;49.902;8.590;2024-01-10T07:26:12;71.50;;;37.63;;
7493;SDS011;3788;49.902;8.590;2024-01-10T07:28:40;43.43;;;25.27;;
7493;SDS011;3788;49.902;8.590;2024-01-10T07:31:06;38.27;;;22.40;;
7493;SDS011;3788;49.902;8.590;2024-01-10T07:33:33;36.53;;;20.03;;
7493;SDS011;3788;49.902;8.590;2024-01-10T07:36:01;33.23;;;18.97;;
7493;SDS011;3788;49.902;8.590;2024-01-10T07:38:28;25.87;;;14.37;;
7493;SDS011;3788;49.902;8.590;2024-01-10T07:40:55;32.17;;;15.50;;
7493;SDS011;3788;49.902;8.590;2024-01-10T07:43:24;26.90;;;14.47;;
7493;SDS011;3788;49.902;8.590;2024-01-10T07:45:52;23.50;;;12.57;;
7493;SDS011;3788;49.902;8.590;2024-01-10T07:48:19;23.20;;;12.77;;
7493;SDS011;3788;49.902;8.590;2024-01-10T07:50:45;24.63;;;14.23;;
7493;SDS011;3788;49.902;8.590;2024-01-10T07:53:13;29.77;;;15.67;;
7493;SDS011;3788;49.902;8.590;2024-01-10T07:55:40;27.13;;;13.90;;
7493;SDS011;3788;49.902;8.590;2024-01-10T07:58:07;22.10;;;14.40;;
7493;SDS011;3788;49.902;8.590;2024-01-10T08:00:33;24.50;;;13.47;;
7493;SDS011;3788;49.902;8.590;2024-01-10T08:03:00;23.57;;;13.10;;
7493;SDS011;3788;49.902;8.590;2024-01-10T08:05:27;26.83;;;14.13;;
7493;SDS011;3788;49.902;8.590;2024-01-10T08:07:54;23.00;;;13.20;;
7493;SDS011;3788;49.902;8.590;2024-01-10T08:10:22;25.47;;;14.07;;
7493;SDS011;3788;49.902;8.590;2024-01-10T08:12:49;23.03;;;12.23;;
7493;SDS011;3788;49.902;8.590;2024-01-10T08:15:17;22.80;;;12.77;;
7493;SDS011;3788;49.902;8.590;2024-01-10T08:17:44;21.70;;;12.50;;
7493;SDS011;3788;49.902;8.590;2024-01-10T08:20:11;21.53;;;11.80;;
7493;SDS011;3788;49.902;8.590;2024-01-10T08:22:40;17.63;;;11.07;;
7493;SDS011;3788;49.902;8.590;2024-01-10T08:25:08;17.87;;;11.87;;
7493;SDS011;3788;49.902;8.590;2024-01-10T08:27:36;19.53;;;11.07;;
7493;SDS011;3788;49.902;8.590;2024-01-10T08:30:03;19.77;;;10.77;;
7493;SDS011;3788;49.902;8.590;2024-01-10T08:32:40;19.73;;;11.37;;
7493;SDS011;3788;49.902;8.590;2024-01-10T08:35:07;19.13;;;11.37;;
7493;SDS011;3788;49.902;8.590;2024-01-10T08:37:34;20.30;;;11.80;;
7493;SDS011;3788;49.902;8.590;2024-01-10T08:40:02;19.20;;;10.23;;
7493;SDS011;3788;49.902;8.590;2024-01-10T08:42:32;19.17;;;11.20;;
7493;SDS011;3788;49.902;8.590;2024-01-10T08:45:00;19.27;;;10.83;;
7493;SDS011;3788;49.902;8.590;2024-01-10T08:47:27;20.87;;;11.80;;
7493;SDS011;3788;49.902;8.590;2024-01-10T08:49:56;19.43;;;11.23;;
7493;SDS011;3788;49.902;8.590;2024-01-10T08:52:23;21.70;;;13.27;;
7493;SDS011;3788;49.902;8.590;2024-01-10T08:54:49;24.63;;;12.57;;
7493;SDS011;3788;49.902;8.590;2024-01-10T08:57:16;25.80;;;14.00;;
7493;SDS011;3788;49.902;8.590;2024-01-10T08:59:43;21.20;;;13.00;;
7493;SDS011;3788;49.902;8.590;2024-01-10T09:02:11;23.77;;;13.10;;
7493;SDS011;3788;49.902;8.590;2024-01-10T09:04:38;21.90;;;13.17;;
7493;SDS011;3788;49.902;8.590;2024-01-10T09:07:05;23.20;;;12.90;;
7493;SDS011;3788;49.902;8.590;2024-01-10T09:09:32;21.63;;;12.13;;
7493;SDS011;3788;49.902;8.590;2024-01-10T09:11:59;22.10;;;12.00;;
7493;SDS011;3788;49.902;8.590;2024-01-10T09:14:26;19.07;;;11.70;;
7493;SDS011;3788;49.902;8.590;2024-01-10T09:16:53;19.37;;;11.90;;
7493;SDS011;3788;49.902;8.590;2024-01-10T09:19:21;28.27;;;19.00;;
7493;SDS011;3788;49.902;8.590;2024-01-10T09:21:47;23.37;;;14.47;;
7493;SDS011;3788;49.902;8.590;2024-01-10T09:24:15;26.07;;;15.00;;
7493;SDS011;3788;49.902;8.590;2024-01-10T09:26:42;27.57;;;18.93;;
7493;SDS011;3788;49.902;8.590;2024-01-10T09:29:09;28.90;;;17.13;;
7493;SDS011;3788;49.902;8.590;2024-01-10T09:31:36;27.00;;;16.80;;
7493;SDS011;3788;49.902;8.590;2024-01-10T09:34:03;26.03;;;14.57;;
7493;SDS011;3788;49.902;8.590;2024-01-10T09:36:31;32.10;;;17.13;;
7493;SDS011;3788;49.902;8.590;2024-01-10T09:38:58;28.80;;;15.17;;
7493;SDS011;3788;49.902;8.590;2024-01-10T09:41:24;22.70;;;14.37;;
7493;SDS011;3788;49.902;8.590;2024-01-10T09:43:54;27.27;;;15.93;;
7493;SDS011;3788;49.902;8.590;2024-01-10T09:46:21;27.40;;;14.53;;
7493;SDS011;3788;49.902;8.590;2024-01-10T09:48:48;25.00;;;14.50;;
7493;SDS011;3788;49.902;8.590;2024-01-10T09:51:15;26.13;;;14.40;;
7493;SDS011;3788;49.902;8.590;2024-01-10T09:53:44;23.53;;;14.07;;
7493;SDS011;3788;49.902;8.590;2024-01-10T09:56:12;22.70;;;12.97;;
7493;SDS011;3788;49.902;8.590;2024-01-10T09:58:39;24.93;;;14.20;;
7493;SDS011;3788;49.902;8.590;2024-01-10T10:01:09;25.47;;;14.30;;
7493;SDS011;3788;49.902;8.590;2024-01-10T10:03:36;29.73;;;14.93;;
7493;SDS011;3788;49.902;8.590;2024-01-10T10:06:07;24.23;;;13.60;;
7493;SDS011;3788;49.902;8.590;2024-01-10T10:08:34;25.90;;;14.10;;
7493;SDS011;3788;49.902;8.590;2024-01-10T10:11:02;24.73;;;13.60;;
7493;SDS011;3788;49.902;8.590;2024-01-10T10:13:29;27.93;;;15.10;;
7493;SDS011;3788;49.902;8.590;2024-01-10T10:15:59;25.73;;;12.77;;
7493;SDS011;3788;49.902;8.590;2024-01-10T10:18:27;22.13;;;12.27;;
7493;SDS011;3788;49.902;8.590;2024-01-10T10:21:07;22.83;;;12.73;;
7493;SDS011;3788;49.902;8.590;2024-01-10T10:23:36;23.83;;;13.33;;
7493;SDS011;3788;49.902;8.590;2024-01-10T10:26:11;26.97;;;14.03;;
7493;SDS011;3788;49.902;8.590;2024-01-10T10:28:44;20.13;;;12.57;;
7493;SDS011;3788;49.902;8.590;2024-01-10T10:31:11;21.80;;;12.97;;
7493;SDS011;3788;49.902;8.590;2024-01-10T10:33:37;24.37;;;13.87;;
7493;SDS011;3788;49.902;8.590;2024-01-10T10:36:05;27.13;;;14.03;;
7493;SDS011;3788;49.902;8.590;2024-01-10T10:38:32;24.30;;;14.70;;
7493;SDS011;3788;49.902;8.590;2024-01-10T10:40:59;20.90;;;13.30;;
7493;SDS011;3788;49.902;8.590;2024-01-10T10:43:27;25.50;;;13.67;;
7493;SDS011;3788;49.902;8.590;2024-01-10T10:45:59;23.83;;;14.33;;
7493;SDS011;3788;49.902;8.590;2024-01-10T10:48:27;24.93;;;13.63;;
7493;SDS011;3788;49.902;8.590;2024-01-10T10:50:59;23.37;;;13.27;;
7493;SDS011;3788;49.902;8.590;2024-01-10T10:53:31;21.27;;;12.77;;
7493;SDS011;3788;49.902;8.590;2024-01-10T10:56:00;24.93;;;14.33;;
7493;SDS011;3788;49.902;8.590;2024-01-10T10:58:32;22.20;;;12.50;;
7493;SDS011;3788;49.902;8.590;2024-01-10T11:01:01;22.93;;;11.90;;
7493;SDS011;3788;49.902;8.590;2024-01-10T11:03:31;25.77;;;13.23;;
7493;SDS011;3788;49.902;8.590;2024-01-10T11:06:01;20.93;;;12.23;;
7493;SDS011;3788;49.902;8.590;2024-01-10T11:08:28;20.87;;;12.40;;
7493;SDS011;3788;49.902;8.590;2024-01-10T11:10:59;19.87;;;11.87;;
7493;SDS011;3788;49.902;8.590;2024-01-10T11:13:32;22.77;;;12.40;;
7493;SDS011;3788;49.902;8.590;2024-01-10T11:16:25;18.50;;;12.03;;
7493;SDS011;3788;49.902;8.590;2024-01-10T11:19:14;20.73;;;11.87;;
7493;SDS011;3788;49.902;8.590;2024-01-10T11:21:56;24.00;;;13.13;;
7493;SDS011;3788;49.902;8.590;2024-01-10T11:24:36;17.23;;;11.97;;
7493;SDS011;3788;49.902;8.590;2024-01-10T11:27:07;21.50;;;11.77;;
7493;SDS011;3788;49.902;8.590;2024-01-10T11:29:39;20.27;;;12.47;;
7493;SDS011;3788;49.902;8.590;2024-01-10T11:32:07;23.63;;;13.13;;
7493;SDS011;3788;49.902;8.590;2024-01-10T11:34:38;20.63;;;13.13;;
7493;SDS011;3788;49.902;8.590;2024-01-10T11:37:15;22.37;;;12.07;;
7493;SDS011;3788;49.902;8.590;2024-01-10T11:39:42;22.80;;;12.67;;
7493;SDS011;3788;49.902;8.590;2024-01-10T11:42:10;22.93;;;12.27;;
7493;SDS011;3788;49.902;8.590;2024-01-10T11:44:47;21.27;;;12.30;;
7493;SDS011;3788;49.902;8.590;2024-01-10T11:47:15;23.00;;;13.30;;
7493;SDS011;3788;49.902;8.590;2024-01-10T11:49:52;24.50;;;12.43;;
7493;SDS011;3788;49.902;8.590;2024-01-10T11:52:20;20.07;;;12.30;;
7493;SDS011;3788;49.902;8.590;2024-01-10T11:54:48;20.87;;;12.13;;
7493;SDS011;3788;49.902;8.590;2024-01-10T11:57:19;20.87;;;11.90;;
7493;SDS011;3788;49.902;8.590;2024-01-10T11:59:50;19.80;;;11.27;;
7493;SDS011;3788;49.902;8.590;2024-01-10T12:02:18;23.23;;;13.47;;
7493;SDS011;3788;49.902;8.590;2024-01-10T12:04:45;22.83;;;13.30;;
7493;SDS011;3788;49.902;8.590;2024-01-10T12:07:13;22.37;;;12.80;;
7493;SDS011;3788;49.902;8.590;2024-01-10T12:09:41;21.23;;;12.30;;
7493;SDS011;3788;49.902;8.590;2024-01-10T12:12:08;24.97;;;14.20;;
7493;SDS011;3788;49.902;8.590;2024-01-10T12:14:36;21.80;;;11.87;;
7493;SDS011;3788;49.902;8.590;2024-01-10T12:17:04;22.17;;;11.80;;
7493;SDS011;3788;49.902;8.590;2024-01-10T12:19:33;22.43;;;12.47;;
7493;SDS011;3788;49.902;8.590;2024-01-10T12:22:00;23.13;;;13.13;;
7493;SDS011;3788;49.902;8.590;2024-01-10T12:24:27;21.97;;;12.93;;
7493;SDS011;3788;49.902;8.590;2024-01-10T12:26:55;21.23;;;11.83;;
7493;SDS011;3788;49.902;8.590;2024-01-10T12:29:22;25.27;;;12.30;;
7493;SDS011;3788;49.902;8.590;2024-01-10T12:31:50;23.67;;;13.13;;
7493;SDS011;3788;49.902;8.590;2024-01-10T12:34:18;18.37;;;11.00;;
7493;SDS011;3788;49.902;8.590;2024-01-10T12:36:46;19.47;;;10.67;;
7493;SDS011;3788;49.902;8.590;2024-01-10T12:39:13;19.63;;;11.50;;
7493;SDS011;3788;49.902;8.590;2024-01-10T12:41:40;20.00;;;10.90;;
7493;SDS011;3788;49.902;8.590;2024-01-10T12:44:08;21.70;;;11.40;;
7493;SDS011;3788;49.902;8.590;2024-01-10T12:46:48;17.93;;;10.13;;
7493;SDS011;3788;49.902;8.590;2024-01-10T12:49:17;20.17;;;11.40;;
7493;SDS011;3788;49.902;8.590;2024-01-10T12:51:44;17.03;;;10.60;;
7493;SDS011;3788;49.902;8.590;2024-01-10T12:54:13;19.67;;;10.67;;
7493;SDS011;3788;49.902;8.590;2024-01-10T12:56:40;15.20;;;10.47;;
7493;SDS011;3788;49.902;8.590;2024-01-10T12:59:07;17.23;;;9.93;;
7493;SDS011;3788;49.902;8.590;2024-01-10T13:01:34;18.97;;;10.80;;
7493;SDS011;3788;49.902;8.590;2024-01-10T13:04:01;19.73;;;12.07;;
7493;SDS011;3788;49.902;8.590;2024-01-10T13:06:29;18.03;;;10.10;;
7493;SDS011;3788;49.902;8.590;2024-01-10T13:08:56;18.67;;;11.83;;
7493;SDS011;3788;49.902;8.590;2024-01-10T13:11:23;20.20;;;11.23;;
7493;SDS011;3788;49.902;8.590;2024-01-10T13:13:50;18.63;;;10.13;;
7493;SDS011;3788;49.902;8.590;2024-01-10T13:16:16;19.77;;;10.90;;
7493;SDS011;3788;49.902;8.590;2024-01-10T13:18:43;17.53;;;10.77;;
7493;SDS011;3788;49.902;8.590;2024-01-10T13:21:10;16.27;;;10.93;;
7493;SDS011;3788;49.902;8.590;2024-01-10T13:23:38;19.00;;;11.10;;
7493;SDS011;3788;49.902;8.590;2024-01-10T13:26:04;17.43;;;10.90;;
7493;SDS011;3788;49.902;8.590;2024-01-10T13:28:32;19.20;;;11.07;;
7493;SDS011;3788;49.902;8.590;2024-01-10T13:30:58;20.33;;;12.00;;
7493;SDS011;3788;49.902;8.590;2024-01-10T13:33:25;19.17;;;11.37;;
7493;SDS011;3788;49.902;8.590;2024-01-10T13:35:52;20.00;;;11.13;;
7493;SDS011;3788;49.902;8.590;2024-01-10T13:38:19;19.57;;;11.27;;
7493;SDS011;3788;49.902;8.590;2024-01-10T13:40:47;21.10;;;11.03;;
7493;SDS011;3788;49.902;8.590;2024-01-10T13:43:15;20.87;;;11.60;;
7493;SDS011;3788;49.902;8.590;2024-01-10T13:45:41;22.50;;;12.60;;
7493;SDS011;3788;49.902;8.590;2024-01-10T13:48:08;19.07;;;10.63;;
7493;SDS011;3788;49.902;8.590;2024-01-10T13:50:36;20.47;;;11.50;;
7493;SDS011;3788;49.902;8.590;2024-01-10T13:53:03;20.17;;;11.50;;
7493;SDS011;3788;49.902;8.590;2024-01-10T13:55:30;19.90;;;11.43;;
7493;SDS011;3788;49.902;8.590;2024-01-10T13:57:58;21.83;;;12.63;;
7493;SDS011;3788;49.902;8.590;2024-01-10T14:00:25;20.23;;;11.33;;
7493;SDS011;3788;49.902;8.590;2024-01-10T14:02:52;19.57;;;11.37;;
7493;SDS011;3788;49.902;8.590;2024-01-10T14:05:23;19.60;;;11.80;;
7493;SDS011;3788;49.902;8.590;2024-01-10T14:07:50;22.23;;;12.60;;
7493;SDS011;3788;49.902;8.590;2024-01-10T14:10:17;21.77;;;12.80;;
7493;SDS011;3788;49.902;8.590;2024-01-10T14:12:44;20.47;;;11.40;;
7493;SDS011;3788;49.902;8.590;2024-01-10T14:15:12;19.47;;;11.80;;
7493;SDS011;3788;49.902;8.590;2024-01-10T14:17:39;19.43;;;10.97;;
7493;SDS011;3788;49.902;8.590;2024-01-10T14:20:06;22.07;;;11.33;;
7493;SDS011;3788;49.902;8.590;2024-01-10T14:22:34;21.70;;;12.20;;
7493;SDS011;3788;49.902;8.590;2024-01-10T14:25:01;18.70;;;11.23;;
7493;SDS011;3788;49.902;8.590;2024-01-10T14:27:28;17.03;;;10.50;;
7493;SDS011;3788;49.902;8.590;2024-01-10T14:29:55;24.37;;;12.30;;
7493;SDS011;3788;49.902;8.590;2024-01-10T14:32:23;16.80;;;10.47;;
7493;SDS011;3788;49.902;8.590;2024-01-10T14:34:50;19.07;;;11.60;;
7493;SDS011;3788;49.902;8.590;2024-01-10T14:37:17;18.50;;;11.10;;
7493;SDS011;3788;49.902;8.590;2024-01-10T14:39:47;19.57;;;11.80;;
7493;SDS011;3788;49.902;8.590;2024-01-10T14:42:14;20.27;;;11.73;;
7493;SDS011;3788;49.902;8.590;2024-01-10T14:44:40;20.90;;;12.10;;
7493;SDS011;3788;49.902;8.590;2024-01-10T14:47:07;18.47;;;11.23;;
7493;SDS011;3788;49.902;8.590;2024-01-10T14:49:35;20.10;;;12.00;;
7493;SDS011;3788;49.902;8.590;2024-01-10T14:52:02;18.53;;;11.20;;